sensor_id;sensor_type;location;lat;lon;timestamp;temperature;humidity
2913;DHT22;1466;48.778;9.166;2023-06-04T00:01:02;20.50;74.40
2913;DHT22;1466;48.778;9.166;2023-06-04T00:03:28;20.50;74.50
2913;DHT22;1466;48.778;9.166;2023-06-04T00:05:53;20.50;74.60
2913;DHT22;1466;48.778;9.166;2023-06-04T00:08:19;20.40;74.90
2913;DHT22;1466;48.778;9.166;2023-06-04T00:10:45;20.40;75.10
2913;DHT22;1466;48.778;9.166;2023-06-04T00:13:10;20.20;75.00
2913;DHT22;1466;48.778;9.166;2023-06-04T00:15:36;20.10;74.90
2913;DHT22;1466;48.778;9.166;2023-06-04T00:18:01;20.10;74.90
2913;DHT22;1466;48.778;9.166;2023-06-04T00:20:27;20.10;74.70
2913;DHT22;1466;48.778;9.166;2023-06-04T00:22:52;20.10;74.50
2913;DHT22;1466;48.778;9.166;2023-06-04T00:25:18;20.10;74.30
2913;DHT22;1466;48.778;9.166;2023-06-04T00:27:44;20.20;74.20
2913;DHT22;1466;48.778;9.166;2023-06-04T00:30:10;20.20;74.10
2913;DHT22;1466;48.778;9.166;2023-06-04T00:32:35;20.20;73.90
2913;DHT22;1466;48.778;9.166;2023-06-04T00:35:02;20.20;73.80
2913;DHT22;1466;48.778;9.166;2023-06-04T00:37:28;20.10;73.70
2913;DHT22;1466;48.778;9.166;2023-06-04T00:39:54;20.10;74.20
2913;DHT22;1466;48.778;9.166;2023-06-04T00:42:20;20.10;74.40
2913;DHT22;1466;48.778;9.166;2023-06-04T00:44:46;20.00;74.90
2913;DHT22;1466;48.778;9.166;2023-06-04T00:47:17;20.00;75.60
2913;DHT22;1466;48.778;9.166;2023-06-04T00:49:43;19.90;76.10
2913;DHT22;1466;48.778;9.166;2023-06-04T00:52:09;19.90;76.40
2913;DHT22;1466;48.778;9.166;2023-06-04T00:54:36;19.80;76.60
2913;DHT22;1466;48.778;9.166;2023-06-04T00:57:02;19.90;76.90
2913;DHT22;1466;48.778;9.166;2023-06-04T00:59:31;19.90;76.70
2913;DHT22;1466;48.778;9.166;2023-06-04T01:02:12;19.90;76.70
2913;DHT22;1466;48.778;9.166;2023-06-04T01:04:50;19.90;76.70
2913;DHT22;1466;48.778;9.166;2023-06-04T01:07:19;19.90;76.40
2913;DHT22;1466;48.778;9.166;2023-06-04T01:09:45;19.90;76.30
2913;DHT22;1466;48.778;9.166;2023-06-04T01:12:11;19.80;76.40
2913;DHT22;1466;48.778;9.166;2023-06-04T01:14:37;19.80;76.30
2913;DHT22;1466;48.778;9.166;2023-06-04T01:20:18;19.70;76.60
2913;DHT22;1466;48.778;9.166;2023-06-04T01:27:57;19.60;77.10
2913;DHT22;1466;48.778;9.166;2023-06-04T01:30:26;19.50;77.20
2913;DHT22;1466;48.778;9.166;2023-06-04T01:32:53;19.50;77.60
2913;DHT22;1466;48.778;9.166;2023-06-04T01:35:19;19.50;77.80
2913;DHT22;1466;48.778;9.166;2023-06-04T01:37:45;19.40;77.70
2913;DHT22;1466;48.778;9.166;2023-06-04T01:40:12;19.40;77.90
2913;DHT22;1466;48.778;9.166;2023-06-04T01:42:37;19.40;77.90
2913;DHT22;1466;48.778;9.166;2023-06-04T01:45:03;19.40;77.90
2913;DHT22;1466;48.778;9.166;2023-06-04T01:47:29;19.30;77.80
2913;DHT22;1466;48.778;9.166;2023-06-04T01:49:54;19.30;77.70
2913;DHT22;1466;48.778;9.166;2023-06-04T01:52:20;19.30;77.80
2913;DHT22;1466;48.778;9.166;2023-06-04T01:54:47;19.30;77.70
2913;DHT22;1466;48.778;9.166;2023-06-04T01:57:20;19.30;77.80
2913;DHT22;1466;48.778;9.166;2023-06-04T01:59:46;19.20;77.90
2913;DHT22;1466;48.778;9.166;2023-06-04T02:02:13;19.20;77.90
2913;DHT22;1466;48.778;9.166;2023-06-04T02:04:39;19.20;78.20
2913;DHT22;1466;48.778;9.166;2023-06-04T02:07:10;19.20;78.20
2913;DHT22;1466;48.778;9.166;2023-06-04T02:09:37;19.10;78.00
2913;DHT22;1466;48.778;9.166;2023-06-04T02:12:03;19.10;78.10
2913;DHT22;1466;48.778;9.166;2023-06-04T02:14:28;19.00;78.40
2913;DHT22;1466;48.778;9.166;2023-06-04T02:16:54;19.00;78.30
2913;DHT22;1466;48.778;9.166;2023-06-04T02:19:23;19.00;78.50
2913;DHT22;1466;48.778;9.166;2023-06-04T02:21:51;18.90;78.80
2913;DHT22;1466;48.778;9.166;2023-06-04T02:24:17;18.90;79.00
2913;DHT22;1466;48.778;9.166;2023-06-04T02:26:43;18.80;79.20
2913;DHT22;1466;48.778;9.166;2023-06-04T02:29:08;18.80;79.40
2913;DHT22;1466;48.778;9.166;2023-06-04T02:31:34;18.80;79.30
2913;DHT22;1466;48.778;9.166;2023-06-04T02:33:59;18.80;78.90
2913;DHT22;1466;48.778;9.166;2023-06-04T02:36:25;18.80;78.50
2913;DHT22;1466;48.778;9.166;2023-06-04T02:38:50;18.80;77.90
2913;DHT22;1466;48.778;9.166;2023-06-04T02:41:16;18.80;77.00
2913;DHT22;1466;48.778;9.166;2023-06-04T02:43:42;18.70;76.00
2913;DHT22;1466;48.778;9.166;2023-06-04T02:46:07;18.70;75.80
2913;DHT22;1466;48.778;9.166;2023-06-04T02:48:33;18.70;75.10
2913;DHT22;1466;48.778;9.166;2023-06-04T02:50:58;18.60;74.50
2913;DHT22;1466;48.778;9.166;2023-06-04T02:53:24;18.30;73.40
2913;DHT22;1466;48.778;9.166;2023-06-04T02:55:50;18.20;73.80
2913;DHT22;1466;48.778;9.166;2023-06-04T02:58:18;18.10;73.80
2913;DHT22;1466;48.778;9.166;2023-06-04T03:00:44;18.00;73.90
2913;DHT22;1466;48.778;9.166;2023-06-04T03:03:10;17.90;73.90
2913;DHT22;1466;48.778;9.166;2023-06-04T03:05:36;17.80;73.80
2913;DHT22;1466;48.778;9.166;2023-06-04T03:08:02;17.80;73.60
2913;DHT22;1466;48.778;9.166;2023-06-04T03:10:29;17.70;73.60
2913;DHT22;1466;48.778;9.166;2023-06-04T03:12:55;17.70;73.80
2913;DHT22;1466;48.778;9.166;2023-06-04T03:15:20;17.80;74.00
2913;DHT22;1466;48.778;9.166;2023-06-04T03:17:46;17.80;73.90
2913;DHT22;1466;48.778;9.166;2023-06-04T03:20:12;17.80;73.70
2913;DHT22;1466;48.778;9.166;2023-06-04T03:22:38;17.90;73.40
2913;DHT22;1466;48.778;9.166;2023-06-04T03:25:04;17.80;72.80
2913;DHT22;1466;48.778;9.166;2023-06-04T03:27:31;17.70;73.00
2913;DHT22;1466;48.778;9.166;2023-06-04T03:29:57;17.80;73.10
2913;DHT22;1466;48.778;9.166;2023-06-04T03:32:23;17.80;72.50
2913;DHT22;1466;48.778;9.166;2023-06-04T03:34:48;17.90;72.20
2913;DHT22;1466;48.778;9.166;2023-06-04T03:37:14;18.00;72.50
2913;DHT22;1466;48.778;9.166;2023-06-04T03:39:39;18.00;71.50
2913;DHT22;1466;48.778;9.166;2023-06-04T03:42:05;18.00;71.10
2913;DHT22;1466;48.778;9.166;2023-06-04T03:44:31;18.00;70.70
2913;DHT22;1466;48.778;9.166;2023-06-04T03:46:57;18.00;70.30
2913;DHT22;1466;48.778;9.166;2023-06-04T03:49:22;18.00;70.30
2913;DHT22;1466;48.778;9.166;2023-06-04T03:51:48;18.10;70.40
2913;DHT22;1466;48.778;9.166;2023-06-04T03:54:14;18.10;70.20
2913;DHT22;1466;48.778;9.166;2023-06-04T03:56:46;18.20;70.20
2913;DHT22;1466;48.778;9.166;2023-06-04T03:59:12;18.20;69.90
2913;DHT22;1466;48.778;9.166;2023-06-04T04:01:38;18.10;70.00
2913;DHT22;1466;48.778;9.166;2023-06-04T04:04:04;18.20;70.10
2913;DHT22;1466;48.778;9.166;2023-06-04T04:06:30;18.30;70.00
2913;DHT22;1466;48.778;9.166;2023-06-04T04:08:56;18.30;69.90
2913;DHT22;1466;48.778;9.166;2023-06-04T04:11:21;18.30;70.00
2913;DHT22;1466;48.778;9.166;2023-06-04T04:13:47;18.30;69.90
2913;DHT22;1466;48.778;9.166;2023-06-04T04:16:13;18.20;69.60
2913;DHT22;1466;48.778;9.166;2023-06-04T04:18:42;18.20;69.50
2913;DHT22;1466;48.778;9.166;2023-06-04T04:21:09;18.20;69.70
2913;DHT22;1466;48.778;9.166;2023-06-04T04:23:37;18.20;70.40
2913;DHT22;1466;48.778;9.166;2023-06-04T04:26:03;18.10;70.70
2913;DHT22;1466;48.778;9.166;2023-06-04T04:28:29;18.00;71.80
2913;DHT22;1466;48.778;9.166;2023-06-04T04:30:55;17.80;72.50
2913;DHT22;1466;48.778;9.166;2023-06-04T04:33:32;17.70;73.10
2913;DHT22;1466;48.778;9.166;2023-06-04T04:35:58;17.70;73.20
2913;DHT22;1466;48.778;9.166;2023-06-04T04:38:27;17.70;73.30
2913;DHT22;1466;48.778;9.166;2023-06-04T04:40:55;17.90;73.40
2913;DHT22;1466;48.778;9.166;2023-06-04T04:43:31;18.00;73.10
2913;DHT22;1466;48.778;9.166;2023-06-04T04:45:57;17.80;73.30
2913;DHT22;1466;48.778;9.166;2023-06-04T04:48:24;17.80;73.30
2913;DHT22;1466;48.778;9.166;2023-06-04T04:50:50;17.70;73.30
2913;DHT22;1466;48.778;9.166;2023-06-04T04:53:15;17.70;73.40
2913;DHT22;1466;48.778;9.166;2023-06-04T04:55:41;17.80;73.20
2913;DHT22;1466;48.778;9.166;2023-06-04T04:58:07;17.80;73.00
2913;DHT22;1466;48.778;9.166;2023-06-04T05:00:32;17.90;73.00
2913;DHT22;1466;48.778;9.166;2023-06-04T05:02:58;17.90;72.80
2913;DHT22;1466;48.778;9.166;2023-06-04T05:05:23;17.90;73.00
2913;DHT22;1466;48.778;9.166;2023-06-04T05:07:49;17.90;72.70
2913;DHT22;1466;48.778;9.166;2023-06-04T05:10:14;18.00;72.50
2913;DHT22;1466;48.778;9.166;2023-06-04T05:12:51;17.90;72.00
2913;DHT22;1466;48.778;9.166;2023-06-04T05:15:17;18.00;72.10
2913;DHT22;1466;48.778;9.166;2023-06-04T05:17:43;18.00;72.10
2913;DHT22;1466;48.778;9.166;2023-06-04T05:20:09;17.90;71.50
2913;DHT22;1466;48.778;9.166;2023-06-04T05:22:37;17.90;71.80
2913;DHT22;1466;48.778;9.166;2023-06-04T05:25:03;17.90;71.50
2913;DHT22;1466;48.778;9.166;2023-06-04T05:27:28;17.90;71.20
2913;DHT22;1466;48.778;9.166;2023-06-04T05:29:54;18.00;71.10
2913;DHT22;1466;48.778;9.166;2023-06-04T05:32:20;18.00;70.90
2913;DHT22;1466;48.778;9.166;2023-06-04T05:34:48;18.00;70.40
2913;DHT22;1466;48.778;9.166;2023-06-04T05:37:14;18.00;69.90
2913;DHT22;1466;48.778;9.166;2023-06-04T05:39:42;18.10;70.00
2913;DHT22;1466;48.778;9.166;2023-06-04T05:42:08;18.10;69.80
2913;DHT22;1466;48.778;9.166;2023-06-04T05:44:33;18.10;69.80
2913;DHT22;1466;48.778;9.166;2023-06-04T05:46:59;18.10;69.70
2913;DHT22;1466;48.778;9.166;2023-06-04T05:49:24;18.10;69.70
2913;DHT22;1466;48.778;9.166;2023-06-04T05:51:53;18.20;69.70
2913;DHT22;1466;48.778;9.166;2023-06-04T05:54:19;18.20;69.50
2913;DHT22;1466;48.778;9.166;2023-06-04T05:56:44;18.20;69.40
2913;DHT22;1466;48.778;9.166;2023-06-04T05:59:10;18.30;69.50
2913;DHT22;1466;48.778;9.166;2023-06-04T06:01:36;18.30;69.50
2913;DHT22;1466;48.778;9.166;2023-06-04T06:04:01;18.30;69.20
2913;DHT22;1466;48.778;9.166;2023-06-04T06:06:27;18.20;69.40
2913;DHT22;1466;48.778;9.166;2023-06-04T06:08:54;18.10;70.00
2913;DHT22;1466;48.778;9.166;2023-06-04T06:11:19;18.10;70.20
2913;DHT22;1466;48.778;9.166;2023-06-04T06:13:46;18.20;70.30
2913;DHT22;1466;48.778;9.166;2023-06-04T06:16:11;18.30;70.50
2913;DHT22;1466;48.778;9.166;2023-06-04T06:18:37;18.40;70.30
2913;DHT22;1466;48.778;9.166;2023-06-04T06:21:03;18.50;70.20
2913;DHT22;1466;48.778;9.166;2023-06-04T06:23:28;18.60;69.90
2913;DHT22;1466;48.778;9.166;2023-06-04T06:25:54;18.70;69.70
2913;DHT22;1466;48.778;9.166;2023-06-04T06:28:19;18.80;69.30
2913;DHT22;1466;48.778;9.166;2023-06-04T06:30:45;18.70;68.60
2913;DHT22;1466;48.778;9.166;2023-06-04T06:33:11;18.70;68.50
2913;DHT22;1466;48.778;9.166;2023-06-04T06:35:37;18.80;68.80
2913;DHT22;1466;48.778;9.166;2023-06-04T06:38:03;18.70;68.40
2913;DHT22;1466;48.778;9.166;2023-06-04T06:40:29;18.80;68.40
2913;DHT22;1466;48.778;9.166;2023-06-04T06:42:55;18.80;68.50
2913;DHT22;1466;48.778;9.166;2023-06-04T06:45:21;19.00;69.30
2913;DHT22;1466;48.778;9.166;2023-06-04T06:47:47;19.10;68.60
2913;DHT22;1466;48.778;9.166;2023-06-04T06:50:13;19.20;68.60
2913;DHT22;1466;48.778;9.166;2023-06-04T06:52:38;19.30;67.40
2913;DHT22;1466;48.778;9.166;2023-06-04T06:55:05;19.40;67.00
2913;DHT22;1466;48.778;9.166;2023-06-04T06:57:30;19.50;67.30
2913;DHT22;1466;48.778;9.166;2023-06-04T06:59:56;19.50;66.70
2913;DHT22;1466;48.778;9.166;2023-06-04T07:02:22;19.60;66.20
2913;DHT22;1466;48.778;9.166;2023-06-04T07:04:48;19.60;66.20
2913;DHT22;1466;48.778;9.166;2023-06-04T07:07:13;19.60;66.20
2913;DHT22;1466;48.778;9.166;2023-06-04T07:09:39;19.60;65.40
2913;DHT22;1466;48.778;9.166;2023-06-04T07:12:05;19.60;65.70
2913;DHT22;1466;48.778;9.166;2023-06-04T07:14:31;19.60;66.20
2913;DHT22;1466;48.778;9.166;2023-06-04T07:16:57;19.80;66.60
2913;DHT22;1466;48.778;9.166;2023-06-04T07:19:22;20.00;66.90
2913;DHT22;1466;48.778;9.166;2023-06-04T07:21:53;20.10;67.00
2913;DHT22;1466;48.778;9.166;2023-06-04T07:24:19;20.30;66.50
2913;DHT22;1466;48.778;9.166;2023-06-04T07:26:44;20.40;66.00
2913;DHT22;1466;48.778;9.166;2023-06-04T07:29:10;20.70;66.00
2913;DHT22;1466;48.778;9.166;2023-06-04T07:31:36;20.80;65.50
2913;DHT22;1466;48.778;9.166;2023-06-04T07:34:02;20.90;65.30
2913;DHT22;1466;48.778;9.166;2023-06-04T07:36:28;21.00;65.10
2913;DHT22;1466;48.778;9.166;2023-06-04T07:38:54;20.80;64.50
2913;DHT22;1466;48.778;9.166;2023-06-04T07:41:20;20.70;64.80
2913;DHT22;1466;48.778;9.166;2023-06-04T07:43:45;20.80;66.00
2913;DHT22;1466;48.778;9.166;2023-06-04T07:46:11;20.90;65.60
2913;DHT22;1466;48.778;9.166;2023-06-04T07:48:37;21.00;65.40
2913;DHT22;1466;48.778;9.166;2023-06-04T07:51:03;21.10;65.50
2913;DHT22;1466;48.778;9.166;2023-06-04T07:53:31;21.20;65.70
2913;DHT22;1466;48.778;9.166;2023-06-04T07:55:57;21.30;65.90
2913;DHT22;1466;48.778;9.166;2023-06-04T07:58:23;21.30;65.30
2913;DHT22;1466;48.778;9.166;2023-06-04T08:00:48;21.30;65.10
2913;DHT22;1466;48.778;9.166;2023-06-04T08:03:14;21.10;65.10
2913;DHT22;1466;48.778;9.166;2023-06-04T08:05:43;21.20;65.60
2913;DHT22;1466;48.778;9.166;2023-06-04T08:08:09;21.30;65.90
2913;DHT22;1466;48.778;9.166;2023-06-04T08:10:35;21.40;66.20
2913;DHT22;1466;48.778;9.166;2023-06-04T08:13:00;21.50;66.00
2913;DHT22;1466;48.778;9.166;2023-06-04T08:15:26;21.40;65.90
2913;DHT22;1466;48.778;9.166;2023-06-04T08:17:51;21.40;66.20
2913;DHT22;1466;48.778;9.166;2023-06-04T08:20:17;21.40;65.90
2913;DHT22;1466;48.778;9.166;2023-06-04T08:22:43;21.20;66.00
2913;DHT22;1466;48.778;9.166;2023-06-04T08:25:09;21.10;66.40
2913;DHT22;1466;48.778;9.166;2023-06-04T08:27:35;21.30;66.90
2913;DHT22;1466;48.778;9.166;2023-06-04T08:30:01;21.40;66.80
2913;DHT22;1466;48.778;9.166;2023-06-04T08:32:27;21.50;66.90
2913;DHT22;1466;48.778;9.166;2023-06-04T08:34:53;21.70;66.90
2913;DHT22;1466;48.778;9.166;2023-06-04T08:37:18;21.90;66.40
2913;DHT22;1466;48.778;9.166;2023-06-04T08:39:44;22.00;65.80
2913;DHT22;1466;48.778;9.166;2023-06-04T08:42:22;22.00;65.80
2913;DHT22;1466;48.778;9.166;2023-06-04T08:44:52;22.10;65.70
2913;DHT22;1466;48.778;9.166;2023-06-04T08:47:22;22.30;65.90
2913;DHT22;1466;48.778;9.166;2023-06-04T08:49:50;22.40;65.60
2913;DHT22;1466;48.778;9.166;2023-06-04T08:52:18;22.50;65.90
2913;DHT22;1466;48.778;9.166;2023-06-04T08:54:51;22.50;65.60
2913;DHT22;1466;48.778;9.166;2023-06-04T08:57:18;22.50;65.70
2913;DHT22;1466;48.778;9.166;2023-06-04T08:59:45;22.60;65.80
2913;DHT22;1466;48.778;9.166;2023-06-04T09:02:13;22.70;65.60
2913;DHT22;1466;48.778;9.166;2023-06-04T09:04:40;22.80;65.00
2913;DHT22;1466;48.778;9.166;2023-06-04T09:07:06;22.90;64.90
2913;DHT22;1466;48.778;9.166;2023-06-04T09:09:37;22.90;64.40
2913;DHT22;1466;48.778;9.166;2023-06-04T09:12:04;22.80;64.60
2913;DHT22;1466;48.778;9.166;2023-06-04T09:14:31;22.90;65.60
2913;DHT22;1466;48.778;9.166;2023-06-04T09:16:57;22.90;65.40
2913;DHT22;1466;48.778;9.166;2023-06-04T09:19:24;23.00;65.90
2913;DHT22;1466;48.778;9.166;2023-06-04T09:21:57;23.00;64.80
2913;DHT22;1466;48.778;9.166;2023-06-04T09:24:25;23.20;65.10
2913;DHT22;1466;48.778;9.166;2023-06-04T09:26:51;23.30;64.70
2913;DHT22;1466;48.778;9.166;2023-06-04T09:29:17;23.40;64.70
2913;DHT22;1466;48.778;9.166;2023-06-04T09:31:47;23.40;64.20
2913;DHT22;1466;48.778;9.166;2023-06-04T09:34:13;23.50;64.20
2913;DHT22;1466;48.778;9.166;2023-06-04T09:36:40;23.60;63.90
2913;DHT22;1466;48.778;9.166;2023-06-04T09:39:15;24.30;63.90
2913;DHT22;1466;48.778;9.166;2023-06-04T09:41:41;25.60;62.40
2913;DHT22;1466;48.778;9.166;2023-06-04T09:44:07;26.60;59.70
2913;DHT22;1466;48.778;9.166;2023-06-04T09:46:36;27.40;58.20
2913;DHT22;1466;48.778;9.166;2023-06-04T09:49:04;27.80;56.60
2913;DHT22;1466;48.778;9.166;2023-06-04T09:51:30;28.00;56.30
2913;DHT22;1466;48.778;9.166;2023-06-04T09:53:57;28.10;56.70
2913;DHT22;1466;48.778;9.166;2023-06-04T09:56:23;28.00;56.30
2913;DHT22;1466;48.778;9.166;2023-06-04T09:58:49;27.80;56.20
2913;DHT22;1466;48.778;9.166;2023-06-04T10:01:15;27.50;56.40
2913;DHT22;1466;48.778;9.166;2023-06-04T10:03:47;27.40;56.60
2913;DHT22;1466;48.778;9.166;2023-06-04T10:06:15;27.40;57.00
2913;DHT22;1466;48.778;9.166;2023-06-04T10:08:42;27.30;55.90
2913;DHT22;1466;48.778;9.166;2023-06-04T10:11:09;27.20;55.70
2913;DHT22;1466;48.778;9.166;2023-06-04T10:13:52;27.00;56.30
2913;DHT22;1466;48.778;9.166;2023-06-04T10:16:19;26.90;56.20
2913;DHT22;1466;48.778;9.166;2023-06-04T10:18:45;26.70;56.20
2913;DHT22;1466;48.778;9.166;2023-06-04T10:21:13;26.60;56.70
2913;DHT22;1466;48.778;9.166;2023-06-04T10:23:39;26.50;56.50
2913;DHT22;1466;48.778;9.166;2023-06-04T10:26:06;26.50;56.80
2913;DHT22;1466;48.778;9.166;2023-06-04T10:28:33;26.40;57.00
2913;DHT22;1466;48.778;9.166;2023-06-04T10:30:59;26.00;56.80
2913;DHT22;1466;48.778;9.166;2023-06-04T10:33:26;25.60;57.10
2913;DHT22;1466;48.778;9.166;2023-06-04T10:35:54;25.30;57.00
2913;DHT22;1466;48.778;9.166;2023-06-04T10:38:20;25.20;57.60
2913;DHT22;1466;48.778;9.166;2023-06-04T10:40:47;25.10;57.90
2913;DHT22;1466;48.778;9.166;2023-06-04T10:43:14;25.10;57.90
2913;DHT22;1466;48.778;9.166;2023-06-04T10:45:42;25.10;57.70
2913;DHT22;1466;48.778;9.166;2023-06-04T10:48:12;25.30;57.70
2913;DHT22;1466;48.778;9.166;2023-06-04T10:50:49;25.30;57.50
2913;DHT22;1466;48.778;9.166;2023-06-04T10:53:16;25.40;57.60
2913;DHT22;1466;48.778;9.166;2023-06-04T10:55:49;25.50;58.20
2913;DHT22;1466;48.778;9.166;2023-06-04T10:58:15;25.60;57.40
2913;DHT22;1466;48.778;9.166;2023-06-04T11:00:45;25.60;57.40
2913;DHT22;1466;48.778;9.166;2023-06-04T11:03:13;25.70;57.20
2913;DHT22;1466;48.778;9.166;2023-06-04T11:05:45;25.80;57.20
2913;DHT22;1466;48.778;9.166;2023-06-04T11:08:12;25.90;57.00
2913;DHT22;1466;48.778;9.166;2023-06-04T11:10:41;26.10;56.90
2913;DHT22;1466;48.778;9.166;2023-06-04T11:13:07;26.20;56.70
2913;DHT22;1466;48.778;9.166;2023-06-04T11:15:43;26.30;56.70
2913;DHT22;1466;48.778;9.166;2023-06-04T11:18:17;26.20;56.00
2913;DHT22;1466;48.778;9.166;2023-06-04T11:20:47;26.20;56.40
2913;DHT22;1466;48.778;9.166;2023-06-04T11:23:14;25.90;56.80
2913;DHT22;1466;48.778;9.166;2023-06-04T11:25:40;25.70;56.80
2913;DHT22;1466;48.778;9.166;2023-06-04T11:28:08;25.80;57.20
2913;DHT22;1466;48.778;9.166;2023-06-04T11:30:33;25.80;56.80
2913;DHT22;1466;48.778;9.166;2023-06-04T11:33:05;25.90;57.40
2913;DHT22;1466;48.778;9.166;2023-06-04T11:35:39;26.00;56.30
2913;DHT22;1466;48.778;9.166;2023-06-04T11:38:05;25.90;56.20
2913;DHT22;1466;48.778;9.166;2023-06-04T11:40:34;25.90;56.40
2913;DHT22;1466;48.778;9.166;2023-06-04T11:43:00;25.90;56.60
2913;DHT22;1466;48.778;9.166;2023-06-04T11:45:27;25.90;56.60
2913;DHT22;1466;48.778;9.166;2023-06-04T11:47:56;25.80;55.70
2913;DHT22;1466;48.778;9.166;2023-06-04T11:50:26;25.80;55.90
2913;DHT22;1466;48.778;9.166;2023-06-04T11:52:52;25.90;56.10
2913;DHT22;1466;48.778;9.166;2023-06-04T11:55:19;26.00;56.10
2913;DHT22;1466;48.778;9.166;2023-06-04T11:57:47;26.00;56.60
2913;DHT22;1466;48.778;9.166;2023-06-04T12:00:14;25.90;55.70
2913;DHT22;1466;48.778;9.166;2023-06-04T12:02:56;26.00;55.70
2913;DHT22;1466;48.778;9.166;2023-06-04T12:05:23;25.90;55.60
2913;DHT22;1466;48.778;9.166;2023-06-04T12:08:04;26.00;56.10
2913;DHT22;1466;48.778;9.166;2023-06-04T12:10:40;25.80;55.10
2913;DHT22;1466;48.778;9.166;2023-06-04T12:13:06;25.70;55.20
2913;DHT22;1466;48.778;9.166;2023-06-04T12:15:31;25.90;55.90
2913;DHT22;1466;48.778;9.166;2023-06-04T12:17:57;25.80;55.40
2913;DHT22;1466;48.778;9.166;2023-06-04T12:20:37;25.90;56.10
2913;DHT22;1466;48.778;9.166;2023-06-04T12:23:05;26.10;56.10
2913;DHT22;1466;48.778;9.166;2023-06-04T12:25:32;26.10;56.00
2913;DHT22;1466;48.778;9.166;2023-06-04T12:27:58;26.10;55.90
2913;DHT22;1466;48.778;9.166;2023-06-04T12:30:38;26.20;56.20
2913;DHT22;1466;48.778;9.166;2023-06-04T12:33:04;26.00;54.50
2913;DHT22;1466;48.778;9.166;2023-06-04T12:35:30;26.00;54.90
2913;DHT22;1466;48.778;9.166;2023-06-04T12:37:55;26.00;54.60
2913;DHT22;1466;48.778;9.166;2023-06-04T12:40:21;26.00;55.00
2913;DHT22;1466;48.778;9.166;2023-06-04T12:42:52;25.90;55.10
2913;DHT22;1466;48.778;9.166;2023-06-04T12:45:18;26.00;55.70
2913;DHT22;1466;48.778;9.166;2023-06-04T12:47:44;26.10;55.60
2913;DHT22;1466;48.778;9.166;2023-06-04T12:50:10;26.00;54.00
2913;DHT22;1466;48.778;9.166;2023-06-04T12:52:36;26.00;54.60
2913;DHT22;1466;48.778;9.166;2023-06-04T12:55:02;25.90;54.00
2913;DHT22;1466;48.778;9.166;2023-06-04T12:57:27;25.90;53.90
2913;DHT22;1466;48.778;9.166;2023-06-04T12:59:53;25.90;54.30
2913;DHT22;1466;48.778;9.166;2023-06-04T13:02:19;25.90;54.10
2913;DHT22;1466;48.778;9.166;2023-06-04T13:04:44;26.00;54.30
2913;DHT22;1466;48.778;9.166;2023-06-04T13:07:12;26.00;54.80
2913;DHT22;1466;48.778;9.166;2023-06-04T13:09:38;26.00;53.50
2913;DHT22;1466;48.778;9.166;2023-06-04T13:12:03;26.00;53.50
2913;DHT22;1466;48.778;9.166;2023-06-04T13:14:31;26.10;53.90
2913;DHT22;1466;48.778;9.166;2023-06-04T13:16:59;26.20;53.80
2913;DHT22;1466;48.778;9.166;2023-06-04T13:19:24;26.00;52.80
2913;DHT22;1466;48.778;9.166;2023-06-04T13:21:50;26.00;54.00
2913;DHT22;1466;48.778;9.166;2023-06-04T13:24:16;26.00;53.50
2913;DHT22;1466;48.778;9.166;2023-06-04T13:26:41;26.10;53.90
2913;DHT22;1466;48.778;9.166;2023-06-04T13:29:07;26.10;53.50
2913;DHT22;1466;48.778;9.166;2023-06-04T13:31:33;26.10;53.40
2913;DHT22;1466;48.778;9.166;2023-06-04T13:33:58;26.10;53.00
2913;DHT22;1466;48.778;9.166;2023-06-04T13:36:24;26.10;52.60
2913;DHT22;1466;48.778;9.166;2023-06-04T13:38:49;26.10;52.70
2913;DHT22;1466;48.778;9.166;2023-06-04T13:41:17;26.10;53.70
2913;DHT22;1466;48.778;9.166;2023-06-04T13:43:43;26.10;53.20
2913;DHT22;1466;48.778;9.166;2023-06-04T13:46:09;26.10;52.20
2913;DHT22;1466;48.778;9.166;2023-06-04T13:48:34;26.00;52.30
2913;DHT22;1466;48.778;9.166;2023-06-04T13:51:00;26.00;51.70
2913;DHT22;1466;48.778;9.166;2023-06-04T13:53:26;25.90;52.10
2913;DHT22;1466;48.778;9.166;2023-06-04T13:55:51;26.00;52.60
2913;DHT22;1466;48.778;9.166;2023-06-04T13:58:23;26.00;52.30
2913;DHT22;1466;48.778;9.166;2023-06-04T14:00:49;26.00;52.60
2913;DHT22;1466;48.778;9.166;2023-06-04T14:03:15;26.10;52.80
2913;DHT22;1466;48.778;9.166;2023-06-04T14:05:40;26.20;52.20
2913;DHT22;1466;48.778;9.166;2023-06-04T14:08:06;26.30;52.90
2913;DHT22;1466;48.778;9.166;2023-06-04T14:10:31;26.30;51.10
2913;DHT22;1466;48.778;9.166;2023-06-04T14:12:57;26.30;51.70
2913;DHT22;1466;48.778;9.166;2023-06-04T14:15:22;26.10;50.30
2913;DHT22;1466;48.778;9.166;2023-06-04T14:17:48;26.10;50.20
2913;DHT22;1466;48.778;9.166;2023-06-04T14:20:14;26.20;50.80
2913;DHT22;1466;48.778;9.166;2023-06-04T14:22:39;26.30;51.10
2913;DHT22;1466;48.778;9.166;2023-06-04T14:25:08;26.30;50.70
2913;DHT22;1466;48.778;9.166;2023-06-04T14:27:35;26.40;51.30
2913;DHT22;1466;48.778;9.166;2023-06-04T14:30:02;26.40;51.80
2913;DHT22;1466;48.778;9.166;2023-06-04T14:32:27;26.30;51.70
2913;DHT22;1466;48.778;9.166;2023-06-04T14:34:53;26.20;52.00
2913;DHT22;1466;48.778;9.166;2023-06-04T14:37:18;26.20;52.20
2913;DHT22;1466;48.778;9.166;2023-06-04T14:39:46;26.20;51.40
2913;DHT22;1466;48.778;9.166;2023-06-04T14:42:12;26.20;50.80
2913;DHT22;1466;48.778;9.166;2023-06-04T14:44:38;26.30;51.50
2913;DHT22;1466;48.778;9.166;2023-06-04T14:47:04;26.40;51.40
2913;DHT22;1466;48.778;9.166;2023-06-04T14:49:30;26.40;51.50
2913;DHT22;1466;48.778;9.166;2023-06-04T14:51:55;26.40;51.40
2913;DHT22;1466;48.778;9.166;2023-06-04T14:54:21;26.50;51.70
2913;DHT22;1466;48.778;9.166;2023-06-04T14:56:46;26.50;52.20
2913;DHT22;1466;48.778;9.166;2023-06-04T14:59:12;26.50;50.60
2913;DHT22;1466;48.778;9.166;2023-06-04T15:01:38;26.50;51.90
2913;DHT22;1466;48.778;9.166;2023-06-04T15:04:06;26.50;50.40
2913;DHT22;1466;48.778;9.166;2023-06-04T15:06:31;26.40;50.00
2913;DHT22;1466;48.778;9.166;2023-06-04T15:08:57;26.30;50.00
2913;DHT22;1466;48.778;9.166;2023-06-04T15:11:23;26.30;50.50
2913;DHT22;1466;48.778;9.166;2023-06-04T15:13:49;26.40;50.80
2913;DHT22;1466;48.778;9.166;2023-06-04T15:16:14;26.40;50.60
2913;DHT22;1466;48.778;9.166;2023-06-04T15:18:40;26.40;51.30
2913;DHT22;1466;48.778;9.166;2023-06-04T15:21:05;26.40;51.90
2913;DHT22;1466;48.778;9.166;2023-06-04T15:23:31;26.30;51.50
2913;DHT22;1466;48.778;9.166;2023-06-04T15:25:57;26.40;49.70
2913;DHT22;1466;48.778;9.166;2023-06-04T15:28:22;26.30;50.00
2913;DHT22;1466;48.778;9.166;2023-06-04T15:30:48;26.40;49.90
2913;DHT22;1466;48.778;9.166;2023-06-04T15:33:14;26.40;49.70
2913;DHT22;1466;48.778;9.166;2023-06-04T15:35:41;26.50;50.30
2913;DHT22;1466;48.778;9.166;2023-06-04T15:38:07;26.60;49.40
2913;DHT22;1466;48.778;9.166;2023-06-04T15:40:32;26.60;48.70
2913;DHT22;1466;48.778;9.166;2023-06-04T15:42:58;26.50;48.10
2913;DHT22;1466;48.778;9.166;2023-06-04T15:45:23;26.30;48.00
2913;DHT22;1466;48.778;9.166;2023-06-04T15:47:50;26.20;48.30
2913;DHT22;1466;48.778;9.166;2023-06-04T15:50:16;26.10;48.20
2913;DHT22;1466;48.778;9.166;2023-06-04T15:52:42;26.20;48.50
2913;DHT22;1466;48.778;9.166;2023-06-04T15:55:07;26.30;49.00
2913;DHT22;1466;48.778;9.166;2023-06-04T15:57:33;26.40;49.50
2913;DHT22;1466;48.778;9.166;2023-06-04T15:59:58;26.40;49.30
2913;DHT22;1466;48.778;9.166;2023-06-04T16:02:24;26.50;48.30
2913;DHT22;1466;48.778;9.166;2023-06-04T16:04:50;26.40;48.30
2913;DHT22;1466;48.778;9.166;2023-06-04T16:07:15;26.20;48.20